sensor_id;sensor_type;location;lat;lon;timestamp;P1;durP1;ratioP1;P2;durP2;ratioP2
57249;SDS011;43102;52.014;-0.680;2023-08-07T00:00:00;2.90;;;2.20;;
57249;SDS011;43102;52.014;-0.680;2023-08-07T00:01:00;2.90;;;2.20;;
57249;SDS011;43102;52.014;-0.680;2023-08-07T00:02:00;2.90;;;2.20;;
57249;SDS011;43102;52.014;-0.680;2023-08-07T00:03:00;2.90;;;2.20;;
57249;SDS011;43102;52.014;-0.680;2023-08-07T00:04:00;2.90;;;2.20;;
57249;SDS011;43102;52.014;-0.680;2023-08-07T00:05:00;2.90;;;2.20;;
57249;SDS011;43102;52.014;-0.680;2023-08-07T00:06:00;2.90;;;2.20;;
57249;SDS011;43102;52.014;-0.680;2023-08-07T00:07:00;2.90;;;2.20;;
57249;SDS011;43102;52.014;-0.680;2023-08-07T00:08:00;2.90;;;2.20;;
57249;SDS011;43102;52.014;-0.680;2023-08-07T00:09:00;2.90;;;2.20;;
57249;SDS011;43102;52.014;-0.680;2023-08-07T00:10:03;2.90;;;2.20;;
57249;SDS011;43102;52.014;-0.680;2023-08-07T00:11:10;2.90;;;2.20;;
57249;SDS011;43102;52.014;-0.680;2023-08-07T00:12:00;2.90;;;2.20;;
57249;SDS011;43102;52.014;-0.680;2023-08-07T00:13:00;4.20;;;2.60;;
57249;SDS011;43102;52.014;-0.680;2023-08-07T00:14:00;4.20;;;2.60;;
57249;SDS011;43102;52.014;-0.680;2023-08-07T00:15:01;4.20;;;2.60;;
57249;SDS011;43102;52.014;-0.680;2023-08-07T00:16:00;4.20;;;2.60;;
57249;SDS011;43102;52.014;-0.680;2023-08-07T00:17:00;4.20;;;2.60;;
57249;SDS011;43102;52.014;-0.680;2023-08-07T00:18:00;4.20;;;2.60;;
57249;SDS011;43102;52.014;-0.680;2023-08-07T00:19:01;4.20;;;2.60;;
57249;SDS011;43102;52.014;-0.680;2023-08-07T00:20:00;4.20;;;2.60;;
57249;SDS011;43102;52.014;-0.680;2023-08-07T00:21:00;4.20;;;2.60;;
57249;SDS011;43102;52.014;-0.680;2023-08-07T00:22:00;4.20;;;2.60;;
57249;SDS011;43102;52.014;-0.680;2023-08-07T00:23:00;4.20;;;2.60;;
57249;SDS011;43102;52.014;-0.680;2023-08-07T00:24:00;4.20;;;2.60;;
57249;SDS011;43102;52.014;-0.680;2023-08-07T00:25:01;4.20;;;2.60;;
57249;SDS011;43102;52.014;-0.680;2023-08-07T00:26:00;4.20;;;2.60;;
57249;SDS011;43102;52.014;-0.680;2023-08-07T00:27:00;4.20;;;2.60;;
57249;SDS011;43102;52.014;-0.680;2023-08-07T00:28:00;4.20;;;2.60;;
57249;SDS011;43102;52.014;-0.680;2023-08-07T00:29:00;4.20;;;2.60;;
57249;SDS011;43102;52.014;-0.680;2023-08-07T00:30:00;4.20;;;2.60;;
57249;SDS011;43102;52.014;-0.680;2023-08-07T00:31:00;4.20;;;2.60;;
57249;SDS011;43102;52.014;-0.680;2023-08-07T00:32:00;4.20;;;2.60;;
57249;SDS011;43102;52.014;-0.680;2023-08-07T00:33:00;4.20;;;2.60;;
57249;SDS011;43102;52.014;-0.680;2023-08-07T00:34:02;4.20;;;2.60;;
57249;SDS011;43102;52.014;-0.680;2023-08-07T00:35:00;4.20;;;2.60;;
57249;SDS011;43102;52.014;-0.680;2023-08-07T00:36:00;4.20;;;2.60;;
57249;SDS011;43102;52.014;-0.680;2023-08-07T00:37:00;4.20;;;2.60;;
57249;SDS011;43102;52.014;-0.680;2023-08-07T00:38:00;4.20;;;2.60;;
57249;SDS011;43102;52.014;-0.680;2023-08-07T00:39:01;4.20;;;2.60;;
57249;SDS011;43102;52.014;-0.680;2023-08-07T00:40:00;4.20;;;2.60;;
57249;SDS011;43102;52.014;-0.680;2023-08-07T00:41:00;4.20;;;2.60;;
57249;SDS011;43102;52.014;-0.680;2023-08-07T00:42:00;4.20;;;2.60;;
57249;SDS011;43102;52.014;-0.680;2023-08-07T00:43:00;2.30;;;1.90;;
57249;SDS011;43102;52.014;-0.680;2023-08-07T00:44:00;2.30;;;1.90;;
57249;SDS011;43102;52.014;-0.680;2023-08-07T00:45:01;2.30;;;1.90;;
57249;SDS011;43102;52.014;-0.680;2023-08-07T00:46:01;2.30;;;1.90;;
57249;SDS011;43102;52.014;-0.680;2023-08-07T00:47:00;2.30;;;1.90;;
57249;SDS011;43102;52.014;-0.680;2023-08-07T00:48:00;2.30;;;1.90;;
57249;SDS011;43102;52.014;-0.680;2023-08-07T00:49:00;2.30;;;1.90;;
57249;SDS011;43102;52.014;-0.680;2023-08-07T00:50:02;2.30;;;1.90;;
57249;SDS011;43102;52.014;-0.680;2023-08-07T00:51:01;2.30;;;1.90;;
57249;SDS011;43102;52.014;-0.680;2023-08-07T00:52:00;2.30;;;1.90;;
57249;SDS011;43102;52.014;-0.680;2023-08-07T00:53:00;2.30;;;1.90;;
57249;SDS011;43102;52.014;-0.680;2023-08-07T00:54:02;2.30;;;1.90;;
57249;SDS011;43102;52.014;-0.680;2023-08-07T00:55:00;2.30;;;1.90;;
57249;SDS011;43102;52.014;-0.680;2023-08-07T00:56:02;2.30;;;1.90;;
57249;SDS011;43102;52.014;-0.680;2023-08-07T00:57:09;2.30;;;1.90;;
57249;SDS011;43102;52.014;-0.680;2023-08-07T00:58:00;2.30;;;1.90;;
57249;SDS011;43102;52.014;-0.680;2023-08-07T00:59:01;2.30;;;1.90;;
57249;SDS011;43102;52.014;-0.680;2023-08-07T01:00:01;2.30;;;1.90;;
57249;SDS011;43102;52.014;-0.680;2023-08-07T01:01:01;2.30;;;1.90;;
57249;SDS011;43102;52.014;-0.680;2023-08-07T01:02:00;2.30;;;1.90;;
57249;SDS011;43102;52.014;-0.680;2023-08-07T01:03:01;2.30;;;1.90;;
57249;SDS011;43102;52.014;-0.680;2023-08-07T01:04:00;2.30;;;1.90;;
57249;SDS011;43102;52.014;-0.680;2023-08-07T01:05:01;2.30;;;1.90;;
57249;SDS011;43102;52.014;-0.680;2023-08-07T01:06:01;2.30;;;1.90;;
57249;SDS011;43102;52.014;-0.680;2023-08-07T01:07:00;2.30;;;1.90;;
57249;SDS011;43102;52.014;-0.680;2023-08-07T01:08:00;2.30;;;1.90;;
57249;SDS011;43102;52.014;-0.680;2023-08-07T01:09:00;2.30;;;1.90;;
57249;SDS011;43102;52.014;-0.680;2023-08-07T01:10:03;2.30;;;1.90;;
57249;SDS011;43102;52.014;-0.680;2023-08-07T01:11:14;2.30;;;1.90;;
57249;SDS011;43102;52.014;-0.680;2023-08-07T01:13:08;2.90;;;2.10;;
57249;SDS011;43102;52.014;-0.680;2023-08-07T01:15:06;2.90;;;2.10;;
57249;SDS011;43102;52.014;-0.680;2023-08-07T01:16:13;2.90;;;2.10;;
57249;SDS011;43102;52.014;-0.680;2023-08-07T01:17:06;2.90;;;2.10;;
57249;SDS011;43102;52.014;-0.680;2023-08-07T01:18:01;2.90;;;2.10;;
57249;SDS011;43102;52.014;-0.680;2023-08-07T01:19:01;2.90;;;2.10;;
57249;SDS011;43102;52.014;-0.680;2023-08-07T01:20:01;2.90;;;2.10;;
57249;SDS011;43102;52.014;-0.680;2023-08-07T01:21:01;2.90;;;2.10;;
57249;SDS011;43102;52.014;-0.680;2023-08-07T01:22:04;2.90;;;2.10;;
57249;SDS011;43102;52.014;-0.680;2023-08-07T01:23:00;2.90;;;2.10;;
57249;SDS011;43102;52.014;-0.680;2023-08-07T01:24:00;2.90;;;2.10;;
57249;SDS011;43102;52.014;-0.680;2023-08-07T01:25:00;2.90;;;2.10;;
57249;SDS011;43102;52.014;-0.680;2023-08-07T01:26:00;2.90;;;2.10;;
57249;SDS011;43102;52.014;-0.680;2023-08-07T01:28:33;2.90;;;2.10;;
57249;SDS011;43102;52.014;-0.680;2023-08-07T01:29:10;2.90;;;2.10;;
57249;SDS011;43102;52.014;-0.680;2023-08-07T01:31:05;2.90;;;2.10;;
57249;SDS011;43102;52.014;-0.680;2023-08-07T01:32:04;2.90;;;2.10;;
57249;SDS011;43102;52.014;-0.680;2023-08-07T01:34:05;2.90;;;2.10;;
57249;SDS011;43102;52.014;-0.680;2023-08-07T01:35:02;2.90;;;2.10;;
57249;SDS011;43102;52.014;-0.680;2023-08-07T01:36:03;2.90;;;2.10;;
57249;SDS011;43102;52.014;-0.680;2023-08-07T01:37:03;2.90;;;2.10;;
57249;SDS011;43102;52.014;-0.680;2023-08-07T01:38:02;2.90;;;2.10;;
57249;SDS011;43102;52.014;-0.680;2023-08-07T01:39:01;2.90;;;2.10;;
57249;SDS011;43102;52.014;-0.680;2023-08-07T01:40:04;2.90;;;2.10;;
57249;SDS011;43102;52.014;-0.680;2023-08-07T01:41:00;2.90;;;2.10;;
57249;SDS011;43102;52.014;-0.680;2023-08-07T01:42:03;2.90;;;2.10;;
57249;SDS011;43102;52.014;-0.680;2023-08-07T01:43:00;3.40;;;2.50;;
57249;SDS011;43102;52.014;-0.680;2023-08-07T01:44:00;3.40;;;2.50;;
57249;SDS011;43102;52.014;-0.680;2023-08-07T01:45:00;3.40;;;2.50;;
57249;SDS011;43102;52.014;-0.680;2023-08-07T01:46:00;3.40;;;2.50;;
57249;SDS011;43102;52.014;-0.680;2023-08-07T01:47:00;3.40;;;2.50;;
57249;SDS011;43102;52.014;-0.680;2023-08-07T01:48:01;3.40;;;2.50;;
57249;SDS011;43102;52.014;-0.680;2023-08-07T01:49:00;3.40;;;2.50;;
57249;SDS011;43102;52.014;-0.680;2023-08-07T01:50:00;3.40;;;2.50;;
57249;SDS011;43102;52.014;-0.680;2023-08-07T01:51:00;3.40;;;2.50;;
57249;SDS011;43102;52.014;-0.680;2023-08-07T01:52:00;3.40;;;2.50;;
57249;SDS011;43102;52.014;-0.680;2023-08-07T01:53:02;3.40;;;2.50;;
57249;SDS011;43102;52.014;-0.680;2023-08-07T01:54:00;3.40;;;2.50;;
57249;SDS011;43102;52.014;-0.680;2023-08-07T01:55:00;3.40;;;2.50;;
57249;SDS011;43102;52.014;-0.680;2023-08-07T01:56:00;3.40;;;2.50;;
57249;SDS011;43102;52.014;-0.680;2023-08-07T01:57:00;3.40;;;2.50;;
57249;SDS011;43102;52.014;-0.680;2023-08-07T01:58:00;3.40;;;2.50;;
57249;SDS011;43102;52.014;-0.680;2023-08-07T01:59:00;3.40;;;2.50;;
57249;SDS011;43102;52.014;-0.680;2023-08-07T02:00:00;3.40;;;2.50;;
57249;SDS011;43102;52.014;-0.680;2023-08-07T02:01:01;3.40;;;2.50;;
57249;SDS011;43102;52.014;-0.680;2023-08-07T02:02:00;3.40;;;2.50;;
57249;SDS011;43102;52.014;-0.680;2023-08-07T02:03:00;3.40;;;2.50;;
57249;SDS011;43102;52.014;-0.680;2023-08-07T02:04:00;3.40;;;2.50;;
57249;SDS011;43102;52.014;-0.680;2023-08-07T02:05:00;3.40;;;2.50;;
57249;SDS011;43102;52.014;-0.680;2023-08-07T02:06:01;3.40;;;2.50;;
57249;SDS011;43102;52.014;-0.680;2023-08-07T02:07:00;3.40;;;2.50;;
57249;SDS011;43102;52.014;-0.680;2023-08-07T02:08:00;3.40;;;2.50;;
57249;SDS011;43102;52.014;-0.680;2023-08-07T02:09:00;3.40;;;2.50;;
57249;SDS011;43102;52.014;-0.680;2023-08-07T02:10:00;3.40;;;2.50;;
57249;SDS011;43102;52.014;-0.680;2023-08-07T02:11:02;3.40;;;2.50;;
57249;SDS011;43102;52.014;-0.680;2023-08-07T02:12:01;3.40;;;2.50;;
57249;SDS011;43102;52.014;-0.680;2023-08-07T02:13:00;4.20;;;3.00;;
57249;SDS011;43102;52.014;-0.680;2023-08-07T02:14:00;4.20;;;3.00;;
57249;SDS011;43102;52.014;-0.680;2023-08-07T02:15:00;4.20;;;3.00;;
57249;SDS011;43102;52.014;-0.680;2023-08-07T02:16:01;4.20;;;3.00;;
57249;SDS011;43102;52.014;-0.680;2023-08-07T02:17:00;4.20;;;3.00;;
57249;SDS011;43102;52.014;-0.680;2023-08-07T02:18:00;4.20;;;3.00;;
57249;SDS011;43102;52.014;-0.680;2023-08-07T02:19:00;4.20;;;3.00;;
57249;SDS011;43102;52.014;-0.680;2023-08-07T02:20:00;4.20;;;3.00;;
57249;SDS011;43102;52.014;-0.680;2023-08-07T02:21:00;4.20;;;3.00;;
57249;SDS011;43102;52.014;-0.680;2023-08-07T02:22:01;4.20;;;3.00;;
57249;SDS011;43102;52.014;-0.680;2023-08-07T02:23:00;4.20;;;3.00;;
57249;SDS011;43102;52.014;-0.680;2023-08-07T02:24:00;4.20;;;3.00;;
57249;SDS011;43102;52.014;-0.680;2023-08-07T02:25:00;4.20;;;3.00;;
57249;SDS011;43102;52.014;-0.680;2023-08-07T02:26:01;4.20;;;3.00;;
57249;SDS011;43102;52.014;-0.680;2023-08-07T02:27:00;4.20;;;3.00;;
57249;SDS011;43102;52.014;-0.680;2023-08-07T02:28:00;4.20;;;3.00;;
57249;SDS011;43102;52.014;-0.680;2023-08-07T02:29:02;4.20;;;3.00;;
57249;SDS011;43102;52.014;-0.680;2023-08-07T02:30:02;4.20;;;3.00;;
57249;SDS011;43102;52.014;-0.680;2023-08-07T02:31:00;4.20;;;3.00;;
57249;SDS011;43102;52.014;-0.680;2023-08-07T02:32:02;4.20;;;3.00;;
57249;SDS011;43102;52.014;-0.680;2023-08-07T02:33:00;4.20;;;3.00;;
57249;SDS011;43102;52.014;-0.680;2023-08-07T02:34:00;4.20;;;3.00;;
57249;SDS011;43102;52.014;-0.680;2023-08-07T02:35:00;4.20;;;3.00;;
57249;SDS011;43102;52.014;-0.680;2023-08-07T02:36:00;4.20;;;3.00;;
57249;SDS011;43102;52.014;-0.680;2023-08-07T02:37:00;4.20;;;3.00;;
57249;SDS011;43102;52.014;-0.680;2023-08-07T02:38:00;4.20;;;3.00;;
57249;SDS011;43102;52.014;-0.680;2023-08-07T02:39:00;4.20;;;3.00;;
57249;SDS011;43102;52.014;-0.680;2023-08-07T02:40:00;4.20;;;3.00;;
57249;SDS011;43102;52.014;-0.680;2023-08-07T02:41:00;4.20;;;3.00;;
57249;SDS011;43102;52.014;-0.680;2023-08-07T02:42:00;4.20;;;3.00;;
57249;SDS011;43102;52.014;-0.680;2023-08-07T02:43:00;5.70;;;3.70;;
57249;SDS011;43102;52.014;-0.680;2023-08-07T02:44:00;5.70;;;3.70;;
57249;SDS011;43102;52.014;-0.680;2023-08-07T02:45:00;5.70;;;3.70;;
57249;SDS011;43102;52.014;-0.680;2023-08-07T02:46:00;5.70;;;3.70;;
57249;SDS011;43102;52.014;-0.680;2023-08-07T02:47:00;5.70;;;3.70;;
57249;SDS011;43102;52.014;-0.680;2023-08-07T02:48:01;5.70;;;3.70;;
57249;SDS011;43102;52.014;-0.680;2023-08-07T02:49:00;5.70;;;3.70;;
57249;SDS011;43102;52.014;-0.680;2023-08-07T02:50:01;5.70;;;3.70;;
57249;SDS011;43102;52.014;-0.680;2023-08-07T02:51:00;5.70;;;3.70;;
57249;SDS011;43102;52.014;-0.680;2023-08-07T02:52:00;5.70;;;3.70;;
57249;SDS011;43102;52.014;-0.680;2023-08-07T02:53:01;5.70;;;3.70;;
57249;SDS011;43102;52.014;-0.680;2023-08-07T02:54:00;5.70;;;3.70;;
57249;SDS011;43102;52.014;-0.680;2023-08-07T02:55:00;5.70;;;3.70;;
57249;SDS011;43102;52.014;-0.680;2023-08-07T02:56:00;5.70;;;3.70;;
57249;SDS011;43102;52.014;-0.680;2023-08-07T02:57:00;5.70;;;3.70;;
57249;SDS011;43102;52.014;-0.680;2023-08-07T02:58:00;5.70;;;3.70;;
57249;SDS011;43102;52.014;-0.680;2023-08-07T02:59:01;5.70;;;3.70;;
57249;SDS011;43102;52.014;-0.680;2023-08-07T03:00:00;5.70;;;3.70;;
57249;SDS011;43102;52.014;-0.680;2023-08-07T03:01:06;5.70;;;3.70;;
57249;SDS011;43102;52.014;-0.680;2023-08-07T03:02:00;5.70;;;3.70;;
57249;SDS011;43102;52.014;-0.680;2023-08-07T03:03:01;5.70;;;3.70;;
57249;SDS011;43102;52.014;-0.680;2023-08-07T03:04:00;5.70;;;3.70;;
57249;SDS011;43102;52.014;-0.680;2023-08-07T03:05:01;5.70;;;3.70;;
57249;SDS011;43102;52.014;-0.680;2023-08-07T03:06:01;5.70;;;3.70;;
57249;SDS011;43102;52.014;-0.680;2023-08-07T03:07:00;5.70;;;3.70;;
57249;SDS011;43102;52.014;-0.680;2023-08-07T03:08:00;5.70;;;3.70;;
57249;SDS011;43102;52.014;-0.680;2023-08-07T03:09:00;5.70;;;3.70;;
57249;SDS011;43102;52.014;-0.680;2023-08-07T03:10:00;5.70;;;3.70;;
57249;SDS011;43102;52.014;-0.680;2023-08-07T03:11:00;5.70;;;3.70;;
57249;SDS011;43102;52.014;-0.680;2023-08-07T03:12:03;5.70;;;3.70;;
57249;SDS011;43102;52.014;-0.680;2023-08-07T03:13:00;3.90;;;3.10;;
57249;SDS011;43102;52.014;-0.680;2023-08-07T03:14:00;3.90;;;3.10;;
57249;SDS011;43102;52.014;-0.680;2023-08-07T03:15:00;3.90;;;3.10;;
57249;SDS011;43102;52.014;-0.680;2023-08-07T03:16:02;3.90;;;3.10;;
57249;SDS011;43102;52.014;-0.680;2023-08-07T03:17:00;3.90;;;3.10;;
57249;SDS011;43102;52.014;-0.680;2023-08-07T03:18:00;3.90;;;3.10;;
57249;SDS011;43102;52.014;-0.680;2023-08-07T03:19:00;3.90;;;3.10;;
57249;SDS011;43102;52.014;-0.680;2023-08-07T03:20:00;3.90;;;3.10;;
57249;SDS011;43102;52.014;-0.680;2023-08-07T03:21:00;3.90;;;3.10;;
57249;SDS011;43102;52.014;-0.680;2023-08-07T03:22:00;3.90;;;3.10;;
57249;SDS011;43102;52.014;-0.680;2023-08-07T03:23:00;3.90;;;3.10;;
57249;SDS011;43102;52.014;-0.680;2023-08-07T03:24:00;3.90;;;3.10;;
57249;SDS011;43102;52.014;-0.680;2023-08-07T03:25:00;3.90;;;3.10;;
57249;SDS011;43102;52.014;-0.680;2023-08-07T03:26:15;3.90;;;3.10;;
57249;SDS011;43102;52.014;-0.680;2023-08-07T03:27:00;3.90;;;3.10;;
57249;SDS011;43102;52.014;-0.680;2023-08-07T03:28:00;3.90;;;3.10;;
57249;SDS011;43102;52.014;-0.680;2023-08-07T03:29:00;3.90;;;3.10;;
57249;SDS011;43102;52.014;-0.680;2023-08-07T03:30:00;3.90;;;3.10;;
57249;SDS011;43102;52.014;-0.680;2023-08-07T03:31:01;3.90;;;3.10;;
57249;SDS011;43102;52.014;-0.680;2023-08-07T03:32:00;3.90;;;3.10;;
57249;SDS011;43102;52.014;-0.680;2023-08-07T03:33:00;3.90;;;3.10;;
57249;SDS011;43102;52.014;-0.680;2023-08-07T03:34:00;3.90;;;3.10;;
57249;SDS011;43102;52.014;-0.680;2023-08-07T03:35:00;3.90;;;3.10;;
57249;SDS011;43102;52.014;-0.680;2023-08-07T03:36:00;3.90;;;3.10;;
57249;SDS011;43102;52.014;-0.680;2023-08-07T03:37:01;3.90;;;3.10;;
57249;SDS011;43102;52.014;-0.680;2023-08-07T03:38:00;3.90;;;3.10;;
57249;SDS011;43102;52.014;-0.680;2023-08-07T03:39:00;3.90;;;3.10;;
57249;SDS011;43102;52.014;-0.680;2023-08-07T03:40:00;3.90;;;3.10;;
57249;SDS011;43102;52.014;-0.680;2023-08-07T03:41:00;3.90;;;3.10;;
57249;SDS011;43102;52.014;-0.680;2023-08-07T03:42:00;3.90;;;3.10;;
57249;SDS011;43102;52.014;-0.680;2023-08-07T03:43:00;5.70;;;3.60;;
57249;SDS011;43102;52.014;-0.680;2023-08-07T03:44:01;5.70;;;3.60;;
57249;SDS011;43102;52.014;-0.680;2023-08-07T03:45:00;5.70;;;3.60;;
57249;SDS011;43102;52.014;-0.680;2023-08-07T03:46:04;5.70;;;3.60;;
57249;SDS011;43102;52.014;-0.680;2023-08-07T03:47:00;5.70;;;3.60;;
57249;SDS011;43102;52.014;-0.680;2023-08-07T03:48:00;5.70;;;3.60;;
57249;SDS011;43102;52.014;-0.680;2023-08-07T03:49:01;5.70;;;3.60;;
57249;SDS011;43102;52.014;-0.680;2023-08-07T03:50:00;5.70;;;3.60;;
57249;SDS011;43102;52.014;-0.680;2023-08-07T03:51:04;5.70;;;3.60;;
57249;SDS011;43102;52.014;-0.680;2023-08-07T03:52:00;5.70;;;3.60;;
57249;SDS011;43102;52.014;-0.680;2023-08-07T03:53:01;5.70;;;3.60;;
57249;SDS011;43102;52.014;-0.680;2023-08-07T03:54:00;5.70;;;3.60;;
57249;SDS011;43102;52.014;-0.680;2023-08-07T03:55:00;5.70;;;3.60;;
57249;SDS011;43102;52.014;-0.680;2023-08-07T03:56:00;5.70;;;3.60;;
57249;SDS011;43102;52.014;-0.680;2023-08-07T03:57:00;5.70;;;3.60;;
57249;SDS011;43102;52.014;-0.680;2023-08-07T03:58:00;5.70;;;3.60;;
57249;SDS011;43102;52.014;-0.680;2023-08-07T03:59:00;5.70;;;3.60;;
57249;SDS011;43102;52.014;-0.680;2023-08-07T04:00:00;5.70;;;3.60;;
57249;SDS011;43102;52.014;-0.680;2023-08-07T04:01:00;5.70;;;3.60;;
57249;SDS011;43102;52.014;-0.680;2023-08-07T04:02:00;5.70;;;3.60;;
57249;SDS011;43102;52.014;-0.680;2023-08-07T04:03:00;5.70;;;3.60;;
57249;SDS011;43102;52.014;-0.680;2023-08-07T04:04:00;5.70;;;3.60;;
57249;SDS011;43102;52.014;-0.680;2023-08-07T04:05:00;5.70;;;3.60;;
57249;SDS011;43102;52.014;-0.680;2023-08-07T04:06:01;5.70;;;3.60;;
57249;SDS011;43102;52.014;-0.680;2023-08-07T04:07:00;5.70;;;3.60;;
57249;SDS011;43102;52.014;-0.680;2023-08-07T04:08:00;5.70;;;3.60;;
57249;SDS011;43102;52.014;-0.680;2023-08-07T04:09:01;5.70;;;3.60;;
57249;SDS011;43102;52.014;-0.680;2023-08-07T04:10:00;5.70;;;3.60;;
57249;SDS011;43102;52.014;-0.680;2023-08-07T04:11:02;5.70;;;3.60;;
57249;SDS011;43102;52.014;-0.680;2023-08-07T04:12:00;5.70;;;3.60;;
57249;SDS011;43102;52.014;-0.680;2023-08-07T04:13:00;4.70;;;3.10;;
57249;SDS011;43102;52.014;-0.680;2023-08-07T04:14:00;4.70;;;3.10;;
57249;SDS011;43102;52.014;-0.680;2023-08-07T04:15:00;4.70;;;3.10;;
57249;SDS011;43102;52.014;-0.680;2023-08-07T04:16:02;4.70;;;3.10;;
57249;SDS011;43102;52.014;-0.680;2023-08-07T04:17:00;4.70;;;3.10;;
57249;SDS011;43102;52.014;-0.680;2023-08-07T04:18:01;4.70;;;3.10;;
57249;SDS011;43102;52.014;-0.680;2023-08-07T04:19:00;4.70;;;3.10;;
57249;SDS011;43102;52.014;-0.680;2023-08-07T04:20:00;4.70;;;3.10;;
57249;SDS011;43102;52.014;-0.680;2023-08-07T04:21:00;4.70;;;3.10;;
57249;SDS011;43102;52.014;-0.680;2023-08-07T04:22:00;4.70;;;3.10;;
57249;SDS011;43102;52.014;-0.680;2023-08-07T04:23:00;4.70;;;3.10;;
57249;SDS011;43102;52.014;-0.680;2023-08-07T04:24:00;4.70;;;3.10;;
57249;SDS011;43102;52.014;-0.680;2023-08-07T04:25:01;4.70;;;3.10;;
57249;SDS011;43102;52.014;-0.680;2023-08-07T04:26:00;4.70;;;3.10;;
57249;SDS011;43102;52.014;-0.680;2023-08-07T04:27:00;4.70;;;3.10;;
57249;SDS011;43102;52.014;-0.680;2023-08-07T04:28:00;4.70;;;3.10;;
57249;SDS011;43102;52.014;-0.680;2023-08-07T04:29:00;4.70;;;3.10;;
57249;SDS011;43102;52.014;-0.680;2023-08-07T04:30:00;4.70;;;3.10;;
57249;SDS011;43102;52.014;-0.680;2023-08-07T04:31:00;4.70;;;3.10;;
57249;SDS011;43102;52.014;-0.680;2023-08-07T04:32:00;4.70;;;3.10;;
57249;SDS011;43102;52.014;-0.680;2023-08-07T04:33:00;4.70;;;3.10;;
57249;SDS011;43102;52.014;-0.680;2023-08-07T04:34:00;4.70;;;3.10;;
57249;SDS011;43102;52.014;-0.680;2023-08-07T04:35:00;4.70;;;3.10;;
57249;SDS011;43102;52.014;-0.680;2023-08-07T04:36:00;4.70;;;3.10;;
57249;SDS011;43102;52.014;-0.680;2023-08-07T04:37:00;4.70;;;3.10;;
57249;SDS011;43102;52.014;-0.680;2023-08-07T04:38:02;4.70;;;3.10;;
57249;SDS011;43102;52.014;-0.680;2023-08-07T04:39:01;4.70;;;3.10;;
57249;SDS011;43102;52.014;-0.680;2023-08-07T04:40:00;4.70;;;3.10;;
57249;SDS011;43102;52.014;-0.680;2023-08-07T04:41:00;4.70;;;3.10;;
57249;SDS011;43102;52.014;-0.680;2023-08-07T04:42:00;4.70;;;3.10;;
57249;SDS011;43102;52.014;-0.680;2023-08-07T04:43:00;3.50;;;2.80;;
57249;SDS011;43102;52.014;-0.680;2023-08-07T04:44:00;3.50;;;2.80;;
57249;SDS011;43102;52.014;-0.680;2023-08-07T04:45:00;3.50;;;2.80;;
57249;SDS011;43102;52.014;-0.680;2023-08-07T04:46:00;3.50;;;2.80;;
57249;SDS011;43102;52.014;-0.680;2023-08-07T04:47:01;3.50;;;2.80;;
57249;SDS011;43102;52.014;-0.680;2023-08-07T04:48:00;3.50;;;2.80;;
57249;SDS011;43102;52.014;-0.680;2023-08-07T04:49:01;3.50;;;2.80;;
57249;SDS011;43102;52.014;-0.680;2023-08-07T04:50:00;3.50;;;2.80;;
57249;SDS011;43102;52.014;-0.680;2023-08-07T04:51:00;3.50;;;2.80;;
57249;SDS011;43102;52.014;-0.680;2023-08-07T04:52:11;3.50;;;2.80;;
57249;SDS011;43102;52.014;-0.680;2023-08-07T04:53:00;3.50;;;2.80;;
57249;SDS011;43102;52.014;-0.680;2023-08-07T04:54:00;3.50;;;2.80;;
57249;SDS011;43102;52.014;-0.680;2023-08-07T04:55:00;3.50;;;2.80;;
57249;SDS011;43102;52.014;-0.680;2023-08-07T04:56:00;3.50;;;2.80;;
57249;SDS011;43102;52.014;-0.680;2023-08-07T04:57:00;3.50;;;2.80;;
57249;SDS011;43102;52.014;-0.680;2023-08-07T04:58:00;3.50;;;2.80;;
57249;SDS011;43102;52.014;-0.680;2023-08-07T04:59:01;3.50;;;2.80;;
57249;SDS011;43102;52.014;-0.680;2023-08-07T05:00:00;3.50;;;2.80;;
57249;SDS011;43102;52.014;-0.680;2023-08-07T05:01:00;3.50;;;2.80;;
57249;SDS011;43102;52.014;-0.680;2023-08-07T05:02:00;3.50;;;2.80;;
57249;SDS011;43102;52.014;-0.680;2023-08-07T05:03:01;3.50;;;2.80;;
57249;SDS011;43102;52.014;-0.680;2023-08-07T05:04:01;3.50;;;2.80;;
57249;SDS011;43102;52.014;-0.680;2023-08-07T05:05:00;3.50;;;2.80;;
57249;SDS011;43102;52.014;-0.680;2023-08-07T05:06:01;3.50;;;2.80;;
57249;SDS011;43102;52.014;-0.680;2023-08-07T05:07:00;3.50;;;2.80;;
57249;SDS011;43102;52.014;-0.680;2023-08-07T05:08:01;3.50;;;2.80;;
57249;SDS011;43102;52.014;-0.680;2023-08-07T05:09:02;3.50;;;2.80;;
57249;SDS011;43102;52.014;-0.680;2023-08-07T05:10:01;3.50;;;2.80;;
57249;SDS011;43102;52.014;-0.680;2023-08-07T05:11:01;3.50;;;2.80;;
57249;SDS011;43102;52.014;-0.680;2023-08-07T05:12:00;3.50;;;2.80;;
57249;SDS011;43102;52.014;-0.680;2023-08-07T05:13:00;3.30;;;2.70;;
57249;SDS011;43102;52.014;-0.680;2023-08-07T05:14:00;3.30;;;2.70;;
57249;SDS011;43102;52.014;-0.680;2023-08-07T05:15:00;3.30;;;2.70;;
57249;SDS011;43102;52.014;-0.680;2023-08-07T05:16:00;3.30;;;2.70;;
57249;SDS011;43102;52.014;-0.680;2023-08-07T05:17:00;3.30;;;2.70;;
57249;SDS011;43102;52.014;-0.680;2023-08-07T05:18:00;3.30;;;2.70;;
57249;SDS011;43102;52.014;-0.680;2023-08-07T05:19:00;3.30;;;2.70;;
57249;SDS011;43102;52.014;-0.680;2023-08-07T05:20:00;3.30;;;2.70;;
57249;SDS011;43102;52.014;-0.680;2023-08-07T05:21:00;3.30;;;2.70;;
57249;SDS011;43102;52.014;-0.680;2023-08-07T05:22:00;3.30;;;2.70;;
57249;SDS011;43102;52.014;-0.680;2023-08-07T05:23:00;3.30;;;2.70;;
57249;SDS011;43102;52.014;-0.680;2023-08-07T05:24:01;3.30;;;2.70;;
57249;SDS011;43102;52.014;-0.680;2023-08-07T05:25:00;3.30;;;2.70;;
57249;SDS011;43102;52.014;-0.680;2023-08-07T05:26:00;3.30;;;2.70;;
57249;SDS011;43102;52.014;-0.680;2023-08-07T05:27:00;3.30;;;2.70;;
57249;SDS011;43102;52.014;-0.680;2023-08-07T05:28:00;3.30;;;2.70;;
57249;SDS011;43102;52.014;-0.680;2023-08-07T05:29:00;3.30;;;2.70;;
57249;SDS011;43102;52.014;-0.680;2023-08-07T05:30:01;3.30;;;2.70;;
57249;SDS011;43102;52.014;-0.680;2023-08-07T05:31:00;3.30;;;2.70;;
57249;SDS011;43102;52.014;-0.680;2023-08-07T05:32:01;3.30;;;2.70;;
57249;SDS011;43102;52.014;-0.680;2023-08-07T05:33:00;3.30;;;2.70;;
57249;SDS011;43102;52.014;-0.680;2023-08-07T05:34:00;3.30;;;2.70;;
57249;SDS011;43102;52.014;-0.680;2023-08-07T05:35:00;3.30;;;2.70;;
57249;SDS011;43102;52.014;-0.680;2023-08-07T05:36:00;3.30;;;2.70;;
57249;SDS011;43102;52.014;-0.680;2023-08-07T05:37:03;3.30;;;2.70;;
57249;SDS011;43102;52.014;-0.680;2023-08-07T05:38:00;3.30;;;2.70;;
57249;SDS011;43102;52.014;-0.680;2023-08-07T05:39:00;3.30;;;2.70;;
57249;SDS011;43102;52.014;-0.680;2023-08-07T05:40:00;3.30;;;2.70;;
57249;SDS011;43102;52.014;-0.680;2023-08-07T05:41:00;3.30;;;2.70;;
57249;SDS011;43102;52.014;-0.680;2023-08-07T05:42:01;3.30;;;2.70;;
57249;SDS011;43102;52.014;-0.680;2023-08-07T05:43:00;4.20;;;2.80;;
57249;SDS011;43102;52.014;-0.680;2023-08-07T05:44:00;4.20;;;2.80;;
57249;SDS011;43102;52.014;-0.680;2023-08-07T05:45:01;4.20;;;2.80;;
57249;SDS011;43102;52.014;-0.680;2023-08-07T05:46:00;4.20;;;2.80;;
57249;SDS011;43102;52.014;-0.680;2023-08-07T05:47:00;4.20;;;2.80;;
57249;SDS011;43102;52.014;-0.680;2023-08-07T05:48:00;4.20;;;2.80;;
57249;SDS011;43102;52.014;-0.680;2023-08-07T05:49:00;4.20;;;2.80;;
57249;SDS011;43102;52.014;-0.680;2023-08-07T05:50:01;4.20;;;2.80;;
57249;SDS011;43102;52.014;-0.680;2023-08-07T05:51:00;4.20;;;2.80;;
57249;SDS011;43102;52.014;-0.680;2023-08-07T05:52:01;4.20;;;2.80;;
57249;SDS011;43102;52.014;-0.680;2023-08-07T05:53:00;4.20;;;2.80;;
57249;SDS011;43102;52.014;-0.680;2023-08-07T05:54:00;4.20;;;2.80;;
57249;SDS011;43102;52.014;-0.680;2023-08-07T05:55:00;4.20;;;2.80;;
57249;SDS011;43102;52.014;-0.680;2023-08-07T05:56:00;4.20;;;2.80;;
57249;SDS011;43102;52.014;-0.680;2023-08-07T05:57:00;4.20;;;2.80;;
57249;SDS011;43102;52.014;-0.680;2023-08-07T05:58:01;4.20;;;2.80;;
57249;SDS011;43102;52.014;-0.680;2023-08-07T05:59:00;4.20;;;2.80;;
57249;SDS011;43102;52.014;-0.680;2023-08-07T06:00:01;4.20;;;2.80;;